• Join FlightAware (Why Join?)
  • Login
  • US Flag 
07:27PM EDT


 

Airport Tracker/Info


-or-


 

Live Flight TrackerFlight Track Log ✈ N449ND ✈ 11-Jun-2014 ✈ KFPR - KVRB

Flight Track Log - Related Links

Times and Time Zones

All times are in EDT time to prevent confusion due to time zone crossing. See the N449ND flight status page for this flight to view local times or setup timezone preferences in your user account.

Time Position Orientation Groundspeed Altitude Reporting Facility
EDT Latitude Longitude Course Direction KTS MPH feet Rate Location/Type
05:05PM 27.4972 -80.3592 328° Northwest 69 79 500  Level Miami Center
05:07PM 27.4972 -80.3347 90° East 77 89 1,000 540 Climbing Miami Center
05:08PM 27.4983 -80.3103 87° East 77 89 1,700 540 Climbing Miami Center
05:09PM 27.4981 -80.2831 91° East 80 92 2,200 480 Climbing Miami Center
05:10PM 27.4975 -80.3726 152° Southeast  Level Estimated
05:10PM 27.4989 -80.2539 88° East 88 101 2,700  Level Miami Center
05:11PM 27.4975 -80.3726 328° Northwest  Level Estimated
05:11PM 27.5117 -80.2364 51° Northeast 92 106 3,100  Level Miami Center
05:12PM 27.5356 -80.2369 359° North 92 106 3,600 480 Climbing Miami Center
05:13PM 27.5472 -80.2533 309° West 81 93 4,100 240 Climbing Miami Center
05:14PM 27.5442 -80.2839 264° West 89 102 4,100 -60 Level Miami Center
05:15PM 27.5481 -80.3144 278° West 93 107 4,000 -60 Descending Miami Center
05:16PM 27.5564 -80.3458 287° West 96 110 4,000  Level Miami Center
05:17PM 27.5631 -80.3744 285° West 96 110 4,000  Level Miami Center
05:18PM 27.5717 -80.4039 288° West 96 110 4,000  Level Miami Center
05:19PM 27.5683 -80.4344 263° West 101 116 4,000  Level Miami Center
05:20PM 27.5628 -80.4667 259° West 101 116 4,000  Level Miami Center
05:21PM 27.5622 -80.4972 269° West 99 114 4,000  Level Miami Center
05:22PM 27.5656 -80.5261 277° West 99 114 4,100  Climbing Miami Center
05:23PM 27.5786 -80.5561 296° West 101 116 4,100  Level Miami Center
05:24PM 27.5967 -80.5819 308° West 101 116 4,100 -60 Level Miami Center
05:25PM 27.6211 -80.6033 322° Northwest 104 120 4,000 -60 Descending Miami Center
05:26PM 27.6497 -80.6144 341° North 104 120 4,000 -60 Level Miami Center
05:27PM 27.6764 -80.6214 347° North 103 119 3,900 -360 Descending Miami Center
05:28PM 27.7067 -80.6150 11° North 109 125 3,300 -840 Descending Miami Center
05:29PM 27.7061 -80.5844 91° East 103 119 2,300 -900 Descending Miami Center
05:30PM 27.6992 -80.5550 105° East 95 109 1,500 -540 Descending Miami Center
05:31PM 27.6931 -80.5297 105° East 89 102 1,200 -120 Descending Miami Center
05:32PM 27.6831 -80.5042 114° Southeast 87 100 1,300 -60 Climbing Miami Center
05:33PM 27.6769 -80.4806 106° East 79 91 1,100 -420 Descending Miami Center
05:34PM 27.6667 -80.4558 115° Southeast 80 92 500 -360 Descending Miami Center
05:35PM 27.6597 -80.4342 110° East 80 92 400 180 Descending Miami Center
05:36PM 27.6647 -80.4131 75° East 82 94 900 540 Climbing Miami Center
05:37PM 27.6889 -80.4094 North 83 96 1,600 540 Climbing Miami Center
05:38PM 27.7139 -80.4047 North 84 97 2,100 480 Climbing Miami Center
05:39PM 27.7367 -80.3983 14° North 87 100 2,600 420 Climbing Miami Center
05:40PM 27.7617 -80.3903 16° North 87 100 3,000 240 Climbing Miami Center
05:41PM 27.7881 -80.3817 16° North 90 104 3,100  Climbing Miami Center
05:42PM 27.8119 -80.3858 351° North 95 109 3,100 180 Level Miami Center
05:44PM 27.8094 -80.4167 265° West 98 113 3,500 300 Climbing Miami Center
05:45PM 27.8042 -80.4447 258° West 94 108 3,800 240 Climbing Miami Center
05:46PM 27.7822 -80.4578 208° Southwest 98 113 4,100 120 Climbing Miami Center
05:47PM 27.7536 -80.4628 189° South 100 115 4,100  Level Miami Center
05:48PM 27.7242 -80.4689 190° South 102 117 4,100 -60 Level Miami Center
05:49PM 27.6994 -80.4828 206° Southwest 100 115 4,000  Descending Miami Center
05:50PM 27.6711 -80.4919 196° South 101 116 4,100  Climbing Miami Center
05:51PM 27.6478 -80.4736 145° Southeast 100 115 4,100  Level Miami Center
05:52PM 27.6261 -80.4497 136° Southeast 101 116 4,100  Level Miami Center
05:53PM 27.6456 -80.4522 354° North 102 117 4,100  Level Miami Center
05:54PM 27.6608 -80.4753 307° West 100 115 4,100  Level Miami Center
05:55PM 27.6853 -80.4933 327° Northwest 100 115 4,100 -60 Level Miami Center
05:56PM 27.7003 -80.4753 47° Northeast 106 122 4,000 -60 Descending Miami Center
05:57PM 27.6739 -80.4586 151° Southeast 104 120 4,000  Level Miami Center
05:58PM 27.6483 -80.4483 160° South 103 119 4,000  Level Miami Center
05:59PM 27.6561 -80.4728 290° West 103 119 4,000  Level Miami Center
06:00PM 27.6797 -80.4914 325° Northwest 102 117 4,000  Level Miami Center
06:01PM 27.6944 -80.4792 36° Northeast 107 123 4,000  Level Miami Center
06:02PM 27.6700 -80.4639 151° Southeast 97 112 4,000  Level Miami Center
06:03PM 27.6575 -80.4781 225° Southwest 97 112 4,000  Level Miami Center
06:04PM 27.6842 -80.4925 334° Northwest 101 116 4,000  Level Miami Center